Time;durP1;ratioP1;P1;durP2;ratioP2;P2;SDS_P1;SDS_P2;PMS_P1;PMS_P2;Temp;Humidity;BMP_temperature;BMP_pressure;BME280_temperature;BME280_humidity;BME280_pressure;Samples;Min_cycle;Max_cycle;Signal;HPM_P1;HPM_P2
2022/08/23 00:01:53;;;;;;;7.00;5.80;;;20.50;99.90;;;;;;5073839;28;20882;-93
2022/08/23 00:04:22;;;;;;;9.27;7.90;;;20.50;99.90;;;;;;5073833;28;20452;-94
2022/08/23 00:06:49;;;;;;;10.53;8.47;;;20.50;99.90;;;;;;5058674;28;20402;-92
2022/08/23 00:09:15;;;;;;;7.10;6.10;;;20.50;99.90;;;;;;5074009;28;20468;-93
2022/08/23 00:12:05;;;;;;;9.63;7.47;;;20.50;99.90;;;;;;5074129;28;20469;-94
2022/08/23 00:14:33;;;;;;;8.07;6.90;;;20.50;99.90;;;;;;5076787;28;20454;-93
2022/08/23 00:16:59;;;;;;;10.10;6.83;;;20.50;99.90;;;;;;5075118;28;20426;-93
2022/08/23 00:19:26;;;;;;;7.87;5.97;;;20.50;99.90;;;;;;5075085;28;20457;-95
2022/08/23 00:21:53;;;;;;;11.33;7.17;;;20.50;99.90;;;;;;5057487;28;20923;-93
2022/08/23 00:24:20;;;;;;;7.70;6.50;;;20.50;99.90;;;;;;5075317;28;20453;-94
2022/08/23 00:26:52;;;;;;;7.20;6.20;;;20.50;99.90;;;;;;5060285;28;20414;-93
2022/08/23 00:29:20;;;;;;;8.80;7.07;;;20.50;99.90;;;;;;5072807;28;20538;-93
2022/08/23 00:31:46;;;;;;;9.27;7.40;;;20.50;99.90;;;;;;5073386;28;20461;-93
2022/08/23 00:34:12;;;;;;;7.73;6.77;;;20.50;99.90;;;;;;5073705;28;20461;-94
2022/08/23 00:36:38;;;;;;;7.70;6.73;;;20.50;99.90;;;;;;5073042;28;20442;-94
2022/08/23 00:39:04;;;;;;;8.40;6.93;;;20.50;99.90;;;;;;5072542;28;20445;-95
2022/08/23 00:41:32;;;;;;;8.20;7.00;;;20.50;99.90;;;;;;5073019;28;20783;-95
2022/08/23 00:49:32;;;;;;;8.70;6.83;;;20.50;99.90;;;;;;5063187;28;20557;-94
2022/08/23 00:52:06;;;;;;;8.23;7.30;;;20.50;99.90;;;;;;5076587;28;20476;-93
2022/08/23 00:54:33;;;;;;;7.07;5.47;;;20.50;99.90;;;;;;5062970;28;20454;-94
2022/08/23 00:57:04;;;;;;;8.07;6.80;;;20.50;99.90;;;;;;5077577;28;20414;-93
2022/08/23 00:59:31;;;;;;;7.13;6.30;;;20.40;99.90;;;;;;5089854;28;20439;-92
2022/08/23 01:01:58;;;;;;;6.70;6.00;;;20.40;99.90;;;;;;5082547;28;20425;-93
2022/08/23 01:04:31;;;;;;;6.67;6.07;;;20.40;99.90;;;;;;5074679;28;20529;-93
2022/08/23 01:07:07;;;;;;;7.37;6.47;;;20.40;99.90;;;;;;5074527;28;20500;-94
2022/08/23 01:09:33;;;;;;;7.83;6.77;;;20.40;99.90;;;;;;5074536;28;20449;-94
2022/08/23 01:12:22;;;;;;;12.33;6.87;;;20.40;99.90;;;;;;5075396;28;20476;-94
2022/08/23 01:14:58;;;;;;;6.70;5.83;;;20.40;99.90;;;;;;5057629;28;20319;-93
2022/08/23 01:17:36;;;;;;;10.33;7.93;;;20.40;99.90;;;;;;5075162;28;20409;-95
2022/08/23 01:20:07;;;;;;;7.23;6.00;;;20.40;99.90;;;;;;5074921;28;20452;-95
2022/08/23 01:22:48;;;;;;;7.70;6.07;;;20.40;99.90;;;;;;5075165;28;20910;-93
2022/08/23 01:25:20;;;;;;;7.07;6.10;;;20.40;99.90;;;;;;5075634;28;20450;-95
2022/08/23 01:27:46;;;;;;;11.43;7.63;;;20.40;99.90;;;;;;5078311;28;20402;-93
2022/08/23 01:30:14;;;;;;;8.80;7.03;;;20.40;99.90;;;;;;5076230;28;20481;-95
2022/08/23 01:32:46;;;;;;;6.97;6.00;;;20.40;99.90;;;;;;5076279;28;20457;-93
2022/08/23 01:35:12;;;;;;;8.80;6.87;;;20.40;99.90;;;;;;5076090;28;20443;-93
2022/08/23 01:37:39;;;;;;;7.60;6.47;;;20.40;99.90;;;;;;5083702;28;20433;-93
2022/08/23 01:40:05;;;;;;;6.97;6.27;;;20.30;99.90;;;;;;5074247;28;20445;-94
2022/08/23 01:42:30;;;;;;;8.63;7.23;;;20.30;99.90;;;;;;5073922;28;20523;-93
2022/08/23 01:44:57;;;;;;;7.70;6.83;;;20.30;99.90;;;;;;5057206;28;20449;-93
2022/08/23 01:47:23;;;;;;;10.40;6.60;;;20.30;99.90;;;;;;5073723;28;20177;-94
2022/08/23 01:49:48;;;;;;;8.37;7.13;;;20.30;99.90;;;;;;5077619;28;20834;-93
2022/08/23 01:52:14;;;;;;;11.53;8.17;;;20.30;99.90;;;;;;5080008;28;20546;-93
2022/08/23 01:54:40;;;;;;;11.53;8.10;;;20.30;99.90;;;;;;5074529;28;20296;-92
2022/08/23 01:57:07;;;;;;;10.33;8.17;;;20.30;99.90;;;;;;5074868;28;20179;-94
2022/08/23 01:59:33;;;;;;;13.73;9.20;;;20.30;99.90;;;;;;5074832;28;20445;-94
2022/08/23 02:01:59;;;;;;;13.07;8.73;;;20.30;99.90;;;;;;5075013;28;20469;-94
2022/08/23 02:04:26;;;;;;;16.03;9.07;;;20.30;99.90;;;;;;5058037;28;20212;-94
2022/08/23 02:06:52;;;;;;;11.57;9.00;;;20.30;99.90;;;;;;5074879;28;20508;-93
2022/08/23 02:09:17;;;;;;;14.17;9.60;;;20.30;99.90;;;;;;5075800;28;20487;-92
2022/08/23 02:11:43;;;;;;;13.90;8.50;;;20.30;99.90;;;;;;5076430;28;20276;-91
2022/08/23 02:14:12;;;;;;;14.10;8.03;;;20.30;99.90;;;;;;5076983;28;20183;-94
2022/08/23 02:16:42;;;;;;;10.40;8.63;;;20.30;99.90;;;;;;5075258;28;20181;-93
2022/08/23 02:19:11;;;;;;;12.90;7.90;;;20.30;99.90;;;;;;5083650;28;20432;-94
2022/08/23 02:21:38;;;;;;;11.10;8.60;;;20.30;99.90;;;;;;5080140;28;20489;-93
2022/08/23 02:24:10;;;;;;;11.13;8.20;;;20.20;99.90;;;;;;5081950;28;20472;-94
2022/08/23 02:26:38;;;;;;;14.87;8.80;;;20.20;99.90;;;;;;5073839;28;20416;-96
2022/08/23 02:29:05;;;;;;;14.70;9.00;;;20.20;99.90;;;;;;5073428;28;20448;-93
2022/08/23 02:31:31;;;;;;;12.70;9.93;;;20.20;99.90;;;;;;5073590;28;20465;-93
2022/08/23 02:33:57;;;;;;;15.23;10.23;;;20.20;99.90;;;;;;5076088;28;20430;-93
2022/08/23 02:36:23;;;;;;;11.17;9.07;;;20.20;99.90;;;;;;5058452;28;20513;-93
2022/08/23 02:38:48;;;;;;;13.20;9.67;;;20.20;99.90;;;;;;5075474;28;20488;-95
2022/08/23 02:41:16;;;;;;;11.27;8.20;;;20.20;99.90;;;;;;5075067;28;20228;-94
2022/08/23 02:43:42;;;;;;;13.37;9.63;;;20.20;99.90;;;;;;5074842;28;20187;-94
2022/08/23 02:46:08;;;;;;;12.80;8.60;;;20.20;99.90;;;;;;5074290;28;20662;-94
2022/08/23 02:48:35;;;;;;;10.83;8.20;;;20.20;99.90;;;;;;5058159;28;20436;-94
2022/08/23 02:51:04;;;;;;;16.10;9.40;;;20.20;99.90;;;;;;5085068;28;20243;-93
2022/08/23 02:53:30;;;;;;;10.73;8.00;;;20.20;99.90;;;;;;5072642;28;20442;-93
2022/08/23 02:55:57;;;;;;;12.03;8.83;;;20.20;99.90;;;;;;5077970;28;20470;-93
2022/08/23 02:58:24;;;;;;;11.83;8.57;;;20.20;99.90;;;;;;5077518;28;20459;-94
2022/08/23 03:00:51;;;;;;;12.33;8.63;;;20.20;99.90;;;;;;5076983;28;20444;-94
2022/08/23 03:03:17;;;;;;;11.37;8.87;;;20.20;99.90;;;;;;5077558;28;20433;-93
2022/08/23 03:05:44;;;;;;;12.17;8.70;;;20.20;99.90;;;;;;5079259;28;20455;-93
2022/08/23 03:08:09;;;;;;;12.70;9.60;;;20.20;99.90;;;;;;5082981;28;20968;-95
2022/08/23 03:10:36;;;;;;;12.47;8.63;;;20.20;99.90;;;;;;5060956;28;20472;-93
2022/08/23 03:13:03;;;;;;;12.77;9.13;;;20.30;99.90;;;;;;5077736;28;20431;-95
2022/08/23 03:15:29;;;;;;;14.53;9.60;;;20.30;99.90;;;;;;5078521;28;20958;-94
2022/08/23 03:17:54;;;;;;;13.80;10.00;;;20.40;99.90;;;;;;5078364;28;20421;-94
2022/08/23 03:20:20;;;;;;;14.47;10.47;;;20.40;99.90;;;;;;5078634;28;20499;-93
2022/08/23 03:22:46;;;;;;;12.80;9.80;;;20.40;99.90;;;;;;5078376;28;20326;-93
2022/08/23 03:25:12;;;;;;;12.20;9.27;;;20.50;99.90;;;;;;5078785;28;20201;-95
2022/08/23 03:27:37;;;;;;;14.20;9.13;;;20.50;99.90;;;;;;5078619;28;20779;-93
2022/08/23 03:30:05;;;;;;;12.67;8.73;;;20.50;99.90;;;;;;5087250;28;20223;-94
2022/08/23 03:32:31;;;;;;;11.17;8.80;;;20.60;99.90;;;;;;5088886;28;20184;-93
2022/08/23 03:34:57;;;;;;;17.67;9.70;;;20.60;99.90;;;;;;5076454;28;20458;-94
2022/08/23 03:37:23;;;;;;;15.70;9.27;;;20.60;99.90;;;;;;5076441;28;20215;-94
2022/08/23 03:39:48;;;;;;;15.83;10.40;;;20.60;99.90;;;;;;5076958;28;20249;-93
2022/08/23 03:42:15;;;;;;;15.83;10.13;;;20.60;99.90;;;;;;5076224;28;20185;-95
2022/08/23 03:44:40;;;;;;;17.70;10.97;;;20.70;99.90;;;;;;5081986;28;20512;-95
2022/08/23 03:47:07;;;;;;;17.30;11.47;;;20.70;99.90;;;;;;5078169;28;20494;-93
2022/08/23 03:49:32;;;;;;;34.00;22.23;;;20.70;99.90;;;;;;5076691;28;20229;-94
2022/08/23 03:51:59;;;;;;;18.73;11.43;;;20.80;99.90;;;;;;5077016;28;20804;-93
2022/08/23 03:54:27;;;;;;;16.10;11.07;;;20.80;99.90;;;;;;5076355;28;20464;-93
2022/08/23 03:56:59;;;;;;;22.60;13.10;;;20.80;99.90;;;;;;5079357;28;20425;-94
2022/08/23 03:59:26;;;;;;;18.83;12.20;;;20.90;99.90;;;;;;5097614;28;20440;-93
2022/08/23 04:01:52;;;;;;;15.63;11.50;;;20.90;99.90;;;;;;5080569;28;20421;-94
2022/08/23 04:04:18;;;;;;;17.47;11.47;;;20.90;99.90;;;;;;5080312;28;20423;-94
2022/08/23 04:06:44;;;;;;;18.63;11.60;;;20.90;99.90;;;;;;5080890;28;21015;-94
2022/08/23 04:09:11;;;;;;;17.70;12.13;;;21.00;99.90;;;;;;5080000;28;20636;-95
2022/08/23 04:11:38;;;;;;;20.53;12.97;;;21.00;99.90;;;;;;5079951;28;20613;-94
2022/08/23 04:14:05;;;;;;;16.23;10.67;;;21.00;99.90;;;;;;5087310;28;20428;-94
2022/08/23 04:16:36;;;;;;;19.40;12.87;;;21.00;99.90;;;;;;5080979;28;20409;-93
2022/08/23 04:19:06;;;;;;;17.43;11.77;;;21.00;99.90;;;;;;5079934;28;20431;-93
2022/08/23 04:21:36;;;;;;;17.90;11.93;;;21.10;99.90;;;;;;5078999;28;20409;-93
2022/08/23 04:24:02;;;;;;;21.57;13.20;;;21.10;99.90;;;;;;5079429;28;20428;-94
2022/08/23 04:26:29;;;;;;;22.07;12.40;;;21.10;99.90;;;;;;5079029;28;20433;-94
2022/08/23 04:28:55;;;;;;;17.20;12.17;;;21.10;99.90;;;;;;5079134;28;20428;-95
2022/08/23 04:31:22;;;;;;;20.17;12.83;;;21.10;99.90;;;;;;5078636;28;20474;-94
2022/08/23 04:33:48;;;;;;;19.67;12.53;;;21.20;99.90;;;;;;5080132;28;20413;-94
2022/08/23 04:36:14;;;;;;;17.57;11.93;;;21.20;99.90;;;;;;5079194;28;20471;-93
2022/08/23 04:38:39;;;;;;;20.60;11.60;;;21.20;99.90;;;;;;5078371;28;20421;-94
2022/08/23 04:43:50;;;;;;;21.03;13.90;;;21.20;99.90;;;;;;5096231;28;20229;-94
2022/08/23 04:46:16;;;;;;;20.33;12.40;;;21.20;99.90;;;;;;5077642;28;20516;-94
2022/08/23 04:48:43;;;;;;;18.67;11.87;;;21.20;99.90;;;;;;5080927;28;20199;-94
2022/08/23 04:51:10;;;;;;;21.87;12.57;;;21.20;99.90;;;;;;5075713;28;20508;-94
2022/08/23 04:53:36;;;;;;;20.93;13.37;;;21.20;99.90;;;;;;5077083;28;20408;-94
2022/08/23 04:56:03;;;;;;;22.70;13.37;;;21.20;99.90;;;;;;5085338;28;20437;-94
2022/08/23 04:58:30;;;;;;;16.17;10.87;;;21.30;99.90;;;;;;5079391;28;20425;-94
2022/08/23 05:00:58;;;;;;;20.27;13.30;;;21.30;99.90;;;;;;5096484;28;20429;-93
2022/08/23 05:03:24;;;;;;;21.70;13.20;;;21.30;99.90;;;;;;5078093;28;20529;-93
2022/08/23 05:05:52;;;;;;;17.90;11.83;;;21.30;99.90;;;;;;5077752;28;20435;-94
2022/08/23 05:08:18;;;;;;;20.17;13.20;;;21.30;99.90;;;;;;5078375;28;20435;-95
2022/08/23 05:10:44;;;;;;;19.50;12.60;;;21.30;99.90;;;;;;5077484;28;20469;-93
2022/08/23 05:13:10;;;;;;;22.40;12.73;;;21.30;99.90;;;;;;5094584;28;20222;-93
2022/08/23 05:15:35;;;;;;;23.63;13.70;;;21.30;99.90;;;;;;5077475;28;20207;-95
2022/08/23 05:18:01;;;;;;;18.43;12.17;;;21.30;99.90;;;;;;5094905;28;20185;-95
2022/08/23 05:20:27;;;;;;;16.87;11.97;;;21.30;99.90;;;;;;5090471;28;20242;-94
2022/08/23 05:22:53;;;;;;;20.50;13.03;;;21.30;99.90;;;;;;5078379;28;20620;-95
2022/08/23 05:25:19;;;;;;;217.07;122.63;;;21.40;99.90;;;;;;5095022;28;20441;-94
2022/08/23 05:27:45;;;;;;;97.90;55.80;;;21.40;99.90;;;;;;5084732;28;20172;-94
2022/08/23 05:30:11;;;;;;;19.87;12.83;;;21.40;99.90;;;;;;5078233;28;20452;-95
2022/08/23 05:32:38;;;;;;;19.30;13.17;;;21.40;99.90;;;;;;5078302;28;20421;-94
2022/08/23 05:35:04;;;;;;;18.67;11.67;;;21.40;99.90;;;;;;5079149;28;20954;-94
2022/08/23 05:37:30;;;;;;;20.40;13.57;;;21.40;99.90;;;;;;5077957;28;20435;-94
2022/08/23 05:39:55;;;;;;;18.60;13.57;;;21.40;99.90;;;;;;5078269;28;20448;-93
2022/08/23 05:42:23;;;;;;;17.10;12.33;;;21.50;99.90;;;;;;5095058;28;20195;-93
2022/08/23 05:44:50;;;;;;;17.67;12.80;;;21.50;99.90;;;;;;5078992;28;20225;-93
2022/08/23 05:47:16;;;;;;;16.37;11.87;;;21.50;99.90;;;;;;5080659;28;20446;-93
2022/08/23 05:49:42;;;;;;;17.77;11.37;;;21.50;99.90;;;;;;5075621;28;20502;-94
2022/08/23 05:52:10;;;;;;;17.13;11.47;;;21.50;99.90;;;;;;5076419;28;20551;-93
2022/08/23 05:54:37;;;;;;;16.83;12.17;;;21.50;99.90;;;;;;5075527;28;20483;-94
2022/08/23 05:57:04;;;;;;;18.93;11.87;;;21.50;99.90;;;;;;5076249;28;20421;-94
2022/08/23 05:59:30;;;;;;;18.60;11.50;;;21.50;99.90;;;;;;5076951;28;20448;-94
2022/08/23 06:01:56;;;;;;;21.63;12.60;;;21.50;99.90;;;;;;5077361;28;20413;-94
2022/08/23 06:04:22;;;;;;;15.20;10.70;;;21.50;99.90;;;;;;5077171;28;20203;-94
2022/08/23 06:06:48;;;;;;;15.13;11.10;;;21.60;99.90;;;;;;5078849;28;20705;-94
2022/08/23 06:09:16;;;;;;;16.23;11.67;;;21.60;99.90;;;;;;5087082;28;20457;-94
2022/08/23 06:11:44;;;;;;;18.47;11.87;;;21.70;99.90;;;;;;5076740;28;20307;-95
2022/08/23 06:14:11;;;;;;;16.17;10.43;;;21.70;99.90;;;;;;5083551;28;20439;-95
2022/08/23 06:16:42;;;;;;;17.70;11.27;;;21.80;99.90;;;;;;5093703;28;20421;-94
2022/08/23 06:19:08;;;;;;;15.97;10.67;;;21.80;99.90;;;;;;5084139;28;20942;-96
2022/08/23 06:21:36;;;;;;;15.03;11.10;;;21.80;99.90;;;;;;5078487;28;20416;-92
2022/08/23 06:24:02;;;;;;;17.90;11.97;;;21.90;99.90;;;;;;5092863;28;20514;-93
2022/08/23 06:26:32;;;;;;;13.10;9.80;;;21.90;99.90;;;;;;5084887;28;20413;-92
2022/08/23 06:29:01;;;;;;;16.87;11.17;;;21.90;99.90;;;;;;5079760;28;20447;-92
2022/08/23 06:31:48;;;;;;;15.30;10.30;;;22.00;99.90;;;;;;5079848;28;20560;-92
2022/08/23 06:34:35;;;;;;;15.73;11.03;;;22.00;99.90;;;;;;5096289;28;20457;-92
2022/08/23 06:37:04;;;;;;;15.23;10.27;;;22.00;99.90;;;;;;5080960;28;20528;-93
2022/08/23 06:39:30;;;;;;;14.67;10.03;;;22.00;99.90;;;;;;5084808;28;20456;-92
2022/08/23 06:41:59;;;;;;;10.60;8.57;;;22.00;99.90;;;;;;5077803;28;20432;-92
2022/08/23 06:44:26;;;;;;;13.80;8.97;;;22.00;99.90;;;;;;5078703;28;20459;-93
2022/08/23 06:46:52;;;;;;;12.73;8.60;;;22.00;99.90;;;;;;5078568;28;20508;-92
2022/08/23 06:49:18;;;;;;;15.83;10.70;;;22.10;99.90;;;;;;5072786;28;20868;-92
2022/08/23 06:51:48;;;;;;;13.17;10.10;;;22.00;99.90;;;;;;5057726;28;20541;-95
2022/08/23 06:54:16;;;;;;;13.13;10.00;;;22.10;99.90;;;;;;5057817;28;20466;-92
2022/08/23 06:56:43;;;;;;;12.17;9.03;;;22.10;99.90;;;;;;5063790;28;20475;-92
2022/08/23 06:59:09;;;;;;;12.33;9.80;;;22.10;99.90;;;;;;5052611;28;20450;-94
2022/08/23 07:01:44;;;;;;;14.00;9.40;;;22.10;99.90;;;;;;5053482;28;20431;-93
2022/08/23 07:04:12;;;;;;;11.93;8.57;;;22.20;99.90;;;;;;5055619;28;20455;-93
2022/08/23 07:06:39;;;;;;;11.67;8.23;;;22.20;99.90;;;;;;5052378;28;20435;-94
2022/08/23 07:09:06;;;;;;;11.67;8.53;;;22.20;99.90;;;;;;5053742;28;20451;-95
2022/08/23 07:11:32;;;;;;;12.17;9.90;;;22.30;99.90;;;;;;5057028;28;20519;-93
2022/08/23 07:14:07;;;;;;;12.00;8.40;;;22.40;99.90;;;;;;5057151;28;20439;-94
2022/08/23 07:16:36;;;;;;;13.10;8.73;;;22.30;99.90;;;;;;5052435;28;20430;-93
2022/08/23 07:19:02;;;;;;;11.40;8.40;;;22.40;99.90;;;;;;5054321;28;20437;-93
2022/08/23 07:21:28;;;;;;;11.43;8.77;;;22.40;99.90;;;;;;5051914;28;20424;-92
2022/08/23 07:23:54;;;;;;;14.40;9.77;;;22.50;99.90;;;;;;5057135;28;20450;-92
2022/08/23 07:26:21;;;;;;;13.30;8.83;;;22.50;99.90;;;;;;5054142;28;20689;-92
2022/08/23 07:28:47;;;;;;;12.83;9.30;;;22.60;99.90;;;;;;5053509;28;20178;-93
2022/08/23 07:31:26;;;;;;;11.93;8.33;;;22.70;99.90;;;;;;5054091;28;21069;-95
2022/08/23 07:33:53;;;;;;;12.77;9.23;;;22.70;99.90;;;;;;5061920;28;20285;-93
2022/08/23 07:36:23;;;;;;;11.37;8.80;;;22.80;99.90;;;;;;5063069;28;20438;-94
2022/08/23 07:38:49;;;;;;;10.37;7.60;;;22.80;99.90;;;;;;5050721;28;20453;-93
2022/08/23 07:41:16;;;;;;;11.37;9.07;;;22.80;99.90;;;;;;5053591;28;20450;-94
2022/08/23 07:43:43;;;;;;;51.07;28.53;;;22.80;99.90;;;;;;5053933;28;20955;-93
2022/08/23 07:46:10;;;;;;;354.03;199.43;;;22.80;99.90;;;;;;5050672;28;21092;-94
2022/08/23 07:48:36;;;;;;;97.77;53.87;;;22.80;99.90;;;;;;5062728;28;20515;-93
2022/08/23 07:51:06;;;;;;;20.07;13.67;;;22.80;99.90;;;;;;5076524;28;20612;-93
2022/08/23 07:53:32;;;;;;;13.70;9.47;;;22.80;99.90;;;;;;5065033;28;20451;-94
2022/08/23 07:56:05;;;;;;;13.13;9.40;;;22.80;99.90;;;;;;5063204;28;20450;-94
2022/08/23 07:58:31;;;;;;;13.17;8.80;;;22.80;99.90;;;;;;5081944;28;20433;-94
2022/08/23 08:01:17;;;;;;;14.57;8.13;;;22.80;99.90;;;;;;5093803;28;20542;-93
2022/08/23 08:03:45;;;;;;;11.40;8.63;;;22.80;99.90;;;;;;5075156;28;20179;-92
2022/08/23 08:06:16;;;;;;;11.30;8.07;;;22.80;99.90;;;;;;5075961;28;21382;-93
2022/08/23 08:08:45;;;;;;;11.70;8.30;;;22.80;99.90;;;;;;5075490;28;20946;-93
2022/08/23 08:11:13;;;;;;;10.00;7.33;;;22.90;99.90;;;;;;5072865;28;21017;-94
2022/08/23 08:13:41;;;;;;;10.73;7.50;;;22.90;99.90;;;;;;5067637;28;20512;-94
2022/08/23 08:16:08;;;;;;;11.03;7.20;;;23.00;99.90;;;;;;5081581;28;20442;-94
2022/08/23 08:18:37;;;;;;;9.33;7.97;;;23.10;99.90;;;;;;5075859;28;20427;-94
2022/08/23 08:21:04;;;;;;;7.00;5.93;;;23.10;99.90;;;;;;5074465;28;20841;-95
2022/08/23 08:23:30;;;;;;;7.40;5.87;;;23.20;99.90;;;;;;5075763;28;20418;-93
2022/08/23 08:26:01;;;;;;;7.27;6.17;;;23.30;99.90;;;;;;5071475;28;21724;-93
2022/08/23 08:28:27;;;;;;;9.30;6.50;;;23.50;99.90;;;;;;5074685;28;20954;-92
2022/08/23 08:30:53;;;;;;;9.20;7.40;;;23.60;99.90;;;;;;5075059;28;20459;-92
2022/08/23 08:33:19;;;;;;;9.50;8.00;;;23.70;99.90;;;;;;5070072;28;20662;-94
2022/08/23 08:35:48;;;;;;;9.23;7.00;;;23.90;99.90;;;;;;5071874;28;20200;-92
2022/08/23 08:38:13;;;;;;;9.47;6.93;;;24.00;99.90;;;;;;5070963;28;20572;-93
2022/08/23 08:40:40;;;;;;;8.47;7.27;;;24.10;99.90;;;;;;5071076;28;20562;-93
2022/08/23 08:43:24;;;;;;;9.50;7.37;;;24.20;99.90;;;;;;5082873;28;20185;-93
2022/08/23 08:46:06;;;;;;;8.57;7.30;;;24.20;99.90;;;;;;5089476;28;20464;-93
2022/08/23 08:48:45;;;;;;;8.37;6.53;;;24.20;99.90;;;;;;5073559;28;20448;-93
2022/08/23 08:51:36;;;;;;;9.43;7.17;;;24.20;99.90;;;;;;5071693;28;20468;-93
2022/08/23 08:54:08;;;;;;;9.30;6.50;;;24.30;99.90;;;;;;5074550;28;20436;-93
2022/08/23 08:56:37;;;;;;;10.13;7.73;;;24.30;99.90;;;;;;5080614;28;20438;-92
2022/08/23 08:59:10;;;;;;;7.77;6.77;;;24.30;99.90;;;;;;5073822;28;20940;-92
2022/08/23 09:01:37;;;;;;;10.10;7.53;;;24.30;99.90;;;;;;5072429;28;20432;-93
2022/08/23 09:04:04;;;;;;;6.97;5.63;;;24.40;99.90;;;;;;5073621;28;21208;-94
2022/08/23 09:06:35;;;;;;;8.63;6.00;;;24.50;99.90;;;;;;5073140;28;20435;-92
2022/08/23 09:09:15;;;;;;;5.80;4.90;;;24.60;99.90;;;;;;5074910;28;20531;-93
2022/08/23 09:12:10;;;;;;;7.10;6.17;;;24.60;99.90;;;;;;5069400;28;20464;-93
2022/08/23 09:14:37;;;;;;;7.47;5.43;;;24.60;99.90;;;;;;5072972;28;20496;-93
2022/08/23 09:17:16;;;;;;;8.07;5.90;;;24.60;99.90;;;;;;5070877;28;20432;-93
2022/08/23 09:19:45;;;;;;;6.57;5.50;;;24.70;99.90;;;;;;5071732;28;20463;-94
2022/08/23 09:22:15;;;;;;;8.10;5.70;;;24.70;99.90;;;;;;5075994;28;20413;-93
2022/08/23 09:24:41;;;;;;;7.20;6.40;;;24.70;99.90;;;;;;5071498;28;20546;-93
2022/08/23 09:27:08;;;;;;;7.10;5.97;;;24.70;99.90;;;;;;5074860;28;20559;-92
2022/08/23 09:29:38;;;;;;;8.87;6.20;;;24.70;99.90;;;;;;5077990;28;20451;-93
2022/08/23 09:32:24;;;;;;;10.53;5.50;;;24.70;99.90;;;;;;5074515;28;21029;-93
2022/08/23 09:34:50;;;;;;;6.73;5.80;;;24.70;99.90;;;;;;5073542;28;20559;-92
2022/08/23 09:37:17;;;;;;;8.40;7.40;;;24.70;99.90;;;;;;5072246;28;20515;-94
2022/08/23 09:39:49;;;;;;;7.00;5.93;;;24.70;99.90;;;;;;5073180;28;20209;-93
2022/08/23 09:42:35;;;;;;;7.53;5.60;;;24.80;99.90;;;;;;5073416;28;20429;-94
2022/08/23 09:45:05;;;;;;;6.50;5.40;;;24.80;99.90;;;;;;5067395;28;21002;-94
2022/08/23 09:47:34;;;;;;;7.87;5.80;;;24.80;99.90;;;;;;5089126;28;20429;-94
2022/08/23 09:50:16;;;;;;;7.70;6.00;;;24.90;99.90;;;;;;5069337;28;20480;-94
2022/08/23 09:52:45;;;;;;;7.50;5.30;;;24.90;99.90;;;;;;5068043;28;20495;-94
2022/08/23 09:55:47;;;;;;;6.03;5.43;;;24.90;99.90;;;;;;5076904;28;20444;-95
2022/08/23 09:58:28;;;;;;;5.13;4.63;;;24.90;99.90;;;;;;5051492;28;20958;-94
2022/08/23 10:01:05;;;;;;;5.00;4.50;;;24.90;99.90;;;;;;5068693;28;20468;-93
2022/08/23 10:03:31;;;;;;;5.43;4.93;;;24.90;99.90;;;;;;5065192;28;20466;-93
2022/08/23 10:05:59;;;;;;;10.43;6.17;;;25.00;99.90;;;;;;5067731;28;20445;-94
2022/08/23 10:08:38;;;;;;;6.07;5.10;;;25.00;99.90;;;;;;5069269;28;20185;-94
2022/08/23 10:11:25;;;;;;;6.37;5.37;;;25.00;99.90;;;;;;5069989;28;20468;-93
2022/08/23 10:13:51;;;;;;;7.10;5.60;;;25.00;99.90;;;;;;5074072;28;20433;-94
2022/08/23 10:16:38;;;;;;;7.70;6.73;;;25.00;99.90;;;;;;5068401;28;20418;-94
2022/08/23 10:19:38;;;;;;;7.10;5.30;;;25.00;99.90;;;;;;5070722;28;20211;-94
2022/08/23 10:22:21;;;;;;;6.60;5.60;;;25.00;99.90;;;;;;5070161;28;20432;-93
2022/08/23 10:24:50;;;;;;;5.60;4.97;;;25.00;99.90;;;;;;5079022;28;20450;-92
2022/08/23 10:30:21;;;;;;;6.30;5.70;;;25.00;99.90;;;;;;5069046;28;20440;-94
2022/08/23 10:32:59;;;;;;;5.97;5.37;;;25.00;99.90;;;;;;5067582;28;20428;-96
2022/08/23 10:35:30;;;;;;;326.17;187.57;;;25.00;99.90;;;;;;5064750;28;20467;-94
2022/08/23 10:38:16;;;;;;;10.80;7.23;;;25.00;99.90;;;;;;5076170;28;20441;-96
2022/08/23 10:40:58;;;;;;;6.53;5.43;;;25.10;99.90;;;;;;5081873;28;20454;-95
2022/08/23 10:43:46;;;;;;;12.43;8.47;;;25.00;99.90;;;;;;5067920;28;20433;-94
2022/08/23 10:46:12;;;;;;;4.83;4.33;;;25.10;99.90;;;;;;5068131;28;20467;-94
2022/08/23 10:48:54;;;;;;;5.30;4.80;;;25.10;99.90;;;;;;5066891;28;20838;-95
2022/08/23 10:51:36;;;;;;;5.67;5.07;;;25.10;99.90;;;;;;5073917;28;20227;-94
2022/08/23 10:54:11;;;;;;;6.10;4.73;;;25.10;99.90;;;;;;5069853;28;20452;-95
2022/08/23 10:56:38;;;;;;;5.07;4.57;;;25.10;99.90;;;;;;5074123;28;20420;-96
2022/08/23 10:59:15;;;;;;;5.23;4.73;;;25.20;99.90;;;;;;5067311;28;20959;-96
2022/08/23 11:01:51;;;;;;;4.60;4.20;;;25.20;99.90;;;;;;5077137;28;20480;-96
2022/08/23 11:04:38;;;;;;;5.80;4.60;;;25.30;99.90;;;;;;5070070;28;20468;-95
2022/08/23 11:07:23;;;;;;;5.10;3.97;;;25.30;99.90;;;;;;5076014;28;20614;-95
2022/08/23 11:10:07;;;;;;;4.70;4.27;;;25.40;99.90;;;;;;5093854;28;20982;-93
2022/08/23 11:12:52;;;;;;;5.10;4.57;;;25.40;99.90;;;;;;5095788;28;20487;-94
2022/08/23 11:15:32;;;;;;;4.30;3.83;;;25.40;99.90;;;;;;5072839;28;20453;-93
2022/08/23 11:18:02;;;;;;;4.17;3.77;;;25.50;99.90;;;;;;5067643;28;20441;-96
2022/08/23 11:20:50;;;;;;;4.33;3.70;;;25.50;99.90;;;;;;5073010;28;20446;-93
2022/08/23 11:23:35;;;;;;;3.87;3.57;;;25.50;99.90;;;;;;5076120;28;20437;-92
2022/08/23 11:26:02;;;;;;;4.60;3.87;;;25.50;99.90;;;;;;5071653;28;20465;-93
2022/08/23 11:28:30;;;;;;;5.20;4.80;;;25.60;99.90;;;;;;5084762;28;20707;-94
2022/08/23 11:30:56;;;;;;;5.63;5.13;;;25.60;99.90;;;;;;5060193;28;20481;-95
2022/08/23 11:33:40;;;;;;;4.40;4.00;;;25.60;99.90;;;;;;5075412;28;20445;-94
2022/08/23 11:36:09;;;;;;;5.90;5.30;;;25.60;99.90;;;;;;5084357;28;20456;-92
2022/08/23 11:38:46;;;;;;;5.20;4.40;;;25.60;99.90;;;;;;5070020;28;20462;-93
2022/08/23 11:41:18;;;;;;;4.63;4.20;;;25.60;99.90;;;;;;5077250;28;20477;-96
2022/08/23 11:43:56;;;;;;;5.63;4.40;;;25.70;99.90;;;;;;5088658;28;20445;-95
2022/08/23 11:46:25;;;;;;;4.97;3.73;;;25.70;99.90;;;;;;5072895;28;20424;-94
2022/08/23 11:48:56;;;;;;;4.40;4.00;;;25.70;99.90;;;;;;5073923;28;20442;-94
2022/08/23 11:51:39;;;;;;;5.20;4.70;;;25.70;99.90;;;;;;5076250;28;20481;-96
2022/08/23 11:54:22;;;;;;;4.90;4.40;;;25.70;99.90;;;;;;5087075;28;20486;-93
2022/08/23 11:57:10;;;;;;;4.97;4.27;;;25.70;99.90;;;;;;5093731;28;20796;-95
2022/08/23 11:59:52;;;;;;;8.70;5.17;;;25.80;99.90;;;;;;5078954;28;20557;-93
2022/08/23 12:02:36;;;;;;;6.40;4.30;;;25.80;99.90;;;;;;5079666;28;20432;-95
2022/08/23 12:05:31;;;;;;;4.00;3.60;;;25.80;99.90;;;;;;5076670;28;20827;-94
2022/08/23 12:08:03;;;;;;;4.83;4.30;;;25.80;99.90;;;;;;5076768;28;20449;-92
2022/08/23 12:10:41;;;;;;;4.77;4.37;;;25.80;99.90;;;;;;5073061;28;20460;-93
2022/08/23 12:13:19;;;;;;;4.60;4.00;;;25.80;99.90;;;;;;5075909;28;20440;-92
2022/08/23 12:16:10;;;;;;;5.67;4.43;;;25.80;99.90;;;;;;5085721;28;20816;-96
2022/08/23 12:18:42;;;;;;;4.90;4.23;;;25.80;99.90;;;;;;5076739;28;20437;-93
2022/08/23 12:21:16;;;;;;;4.63;4.13;;;25.80;99.90;;;;;;5076305;28;20457;-94
2022/08/23 12:23:45;;;;;;;5.70;5.07;;;25.90;99.90;;;;;;5077792;28;20433;-93
2022/08/23 12:26:52;;;;;;;6.20;4.53;;;25.90;99.90;;;;;;5078746;28;20449;-92
2022/08/23 12:29:17;;;;;;;6.80;3.87;;;26.00;99.90;;;;;;5078619;28;20472;-95
2022/08/23 12:31:57;;;;;;;4.50;4.10;;;26.00;99.90;;;;;;5075038;28;21017;-94
2022/08/23 12:34:52;;;;;;;5.83;4.30;;;26.00;99.90;;;;;;5074661;28;20230;-96
2022/08/23 12:37:43;;;;;;;5.27;4.77;;;26.00;99.90;;;;;;5059364;28;20460;-92
2022/08/23 12:40:26;;;;;;;5.10;4.60;;;26.00;99.90;;;;;;5098960;28;20449;-96
2022/08/23 12:43:04;;;;;;;5.20;4.70;;;26.00;99.90;;;;;;5076122;28;20467;-93
2022/08/23 12:45:41;;;;;;;5.10;4.60;;;26.00;99.90;;;;;;5078121;28;20861;-93
2022/08/23 12:48:11;;;;;;;5.17;4.73;;;26.10;99.90;;;;;;5093440;28;20468;-95
2022/08/23 12:50:44;;;;;;;5.00;4.03;;;26.10;99.90;;;;;;5074739;28;20473;-93
2022/08/23 12:53:11;;;;;;;6.43;4.77;;;26.10;99.90;;;;;;5076854;28;20456;-93
2022/08/23 12:55:41;;;;;;;5.60;4.30;;;26.10;99.90;;;;;;5075634;28;20449;-94
2022/08/23 12:58:11;;;;;;;4.47;4.03;;;26.10;99.90;;;;;;5076247;28;20444;-92
2022/08/23 13:00:53;;;;;;;5.53;4.60;;;26.10;99.90;;;;;;5076474;28;21052;-94
2022/08/23 13:03:28;;;;;;;5.63;5.10;;;26.20;99.90;;;;;;5070090;28;20440;-95
2022/08/23 13:06:01;;;;;;;4.97;4.30;;;26.20;99.90;;;;;;5079577;28;20494;-95
2022/08/23 13:08:32;;;;;;;5.30;4.73;;;26.20;99.90;;;;;;5078278;28;20445;-96